Time;durP1;ratioP1;P1;durP2;ratioP2;P2;SDS_P1;SDS_P2;PMS_P1;PMS_P2;Temp;Humidity;BMP_temperature;BMP_pressure;BME280_temperature;BME280_humidity;BME280_pressure;Samples;Min_cycle;Max_cycle;Signal;HPM_P1;HPM_P2
2022/02/13 00:00:26;;;;;;;13.48;7.53;;;;;;;-4.78;87.58;98003.31;5088353;28;20537;-60
2022/02/13 00:02:52;;;;;;;12.10;7.20;;;;;;;-4.62;86.89;97993.03;5072568;28;20040;-61
2022/02/13 00:05:19;;;;;;;11.95;6.10;;;;;;;-4.55;86.51;97995.97;5083539;28;20044;-57
2022/02/13 00:07:46;;;;;;;18.95;9.00;;;;;;;-4.42;85.75;97998.31;5069183;28;20045;-59
2022/02/13 00:10:13;;;;;;;18.83;8.68;;;;;;;-4.27;85.90;97992.59;5076546;28;20062;-59
2022/02/13 00:12:40;;;;;;;15.63;8.07;;;;;;;-4.17;85.83;97982.81;5074137;28;20052;-58
2022/02/13 00:15:07;;;;;;;13.70;6.65;;;;;;;-4.10;85.35;97981.28;5077953;28;20694;-59
2022/02/13 00:17:34;;;;;;;12.73;7.03;;;;;;;-4.12;85.35;97980.59;5065292;28;20044;-56
2022/02/13 00:20:19;;;;;;;10.40;5.97;;;;;;;-4.18;85.02;97970.56;5072721;28;20118;-60
2022/02/13 00:22:46;;;;;;;11.88;7.15;;;;;;;-4.20;86.04;97978.66;5074726;28;20106;-60
2022/02/13 00:25:13;;;;;;;15.52;7.68;;;;;;;-4.18;85.94;97978.50;5079046;28;20090;-60
2022/02/13 00:27:39;;;;;;;11.45;6.57;;;;;;;-4.30;85.47;97969.91;5092369;28;20040;-60
2022/02/13 00:30:07;;;;;;;12.65;6.70;;;;;;;-4.18;86.20;97962.63;5087827;28;20044;-60
2022/02/13 00:32:35;;;;;;;11.90;7.50;;;;;;;-4.32;85.25;97962.13;5074917;28;20586;-60
2022/02/13 00:35:01;;;;;;;16.05;7.15;;;;;;;-4.11;87.07;97963.75;5075431;28;20035;-59
2022/02/13 00:37:28;;;;;;;11.43;6.38;;;;;;;-4.19;85.41;97963.63;5091141;28;20036;-58
2022/02/13 00:39:54;;;;;;;17.35;7.40;;;;;;;-4.21;85.55;97953.19;5084579;28;20039;-58
2022/02/13 00:42:21;;;;;;;12.35;7.22;;;;;;;-4.20;85.83;97951.38;5092018;28;20048;-59
2022/02/13 00:44:48;;;;;;;14.70;6.30;;;;;;;-4.23;84.92;97944.59;5082023;28;20494;-60
2022/02/13 00:47:14;;;;;;;11.68;6.25;;;;;;;-4.25;85.57;97945.66;5071638;28;20044;-59
2022/02/13 00:49:41;;;;;;;11.77;6.38;;;;;;;-4.29;85.90;97934.56;5076816;28;20415;-59
2022/02/13 00:52:07;;;;;;;12.85;6.43;;;;;;;-4.34;85.33;97944.72;5077196;28;20049;-59
2022/02/13 00:54:34;;;;;;;13.57;6.30;;;;;;;-4.26;85.65;97934.28;5084599;28;20059;-59
2022/02/13 00:57:01;;;;;;;12.07;6.38;;;;;;;-4.08;85.93;97936.16;5092221;28;20055;-58
2022/02/13 00:59:29;;;;;;;12.18;6.00;;;;;;;-4.19;83.24;97937.19;5088324;28;20047;-58
2022/02/13 01:01:56;;;;;;;9.27;5.40;;;;;;;-4.20;84.43;97938.97;5085362;28;20044;-58
2022/02/13 01:04:23;;;;;;;12.25;5.93;;;;;;;-4.32;83.66;97930.38;5081782;28;20040;-59
2022/02/13 01:06:50;;;;;;;12.10;6.00;;;;;;;-4.31;84.78;97932.06;5076698;28;20089;-60
2022/02/13 01:09:17;;;;;;;8.85;5.60;;;;;;;-4.42;83.19;97934.03;5087958;28;20083;-59
2022/02/13 01:11:45;;;;;;;12.05;5.88;;;;;;;-4.48;85.56;97930.16;5092740;28;20375;-59
2022/02/13 01:14:11;;;;;;;11.68;6.28;;;;;;;-4.72;85.28;97934.09;5083545;28;20089;-59
2022/02/13 01:16:38;;;;;;;11.77;6.40;;;;;;;-4.88;87.07;97918.78;5072319;28;20055;-59
2022/02/13 01:19:04;;;;;;;12.20;5.82;;;;;;;-4.83;86.68;97927.16;5078859;28;20047;-59
2022/02/13 01:21:31;;;;;;;11.63;6.03;;;;;;;-4.59;88.36;97924.06;5082497;28;20039;-59
2022/02/13 01:23:59;;;;;;;11.63;6.28;;;;;;;-4.45;86.93;97924.56;5072775;28;20044;-56
2022/02/13 01:26:25;;;;;;;12.70;6.03;;;;;;;-4.09;87.29;97922.09;5071690;28;20040;-59
2022/02/13 01:28:52;;;;;;;10.18;5.88;;;;;;;-3.66;85.64;97925.13;5090519;28;20047;-57
2022/02/13 01:31:19;;;;;;;12.52;5.82;;;;;;;-3.18;84.30;97922.34;5090744;28;20040;-59
2022/02/13 01:33:45;;;;;;;11.30;5.63;;;;;;;-2.88;82.25;97922.09;5078534;28;20540;-59
2022/02/13 01:36:12;;;;;;;9.80;5.05;;;;;;;-2.71;81.11;97914.28;5087880;28;20415;-59
2022/02/13 01:38:39;;;;;;;9.82;5.53;;;;;;;-2.54;80.79;97913.44;5073520;28;20654;-59
2022/02/13 01:41:06;;;;;;;12.13;5.75;;;;;;;-2.51;80.09;97910.47;5089038;28;20090;-58
2022/02/13 01:43:33;;;;;;;7.55;4.85;;;;;;;-2.77;79.90;97913.09;5071858;28;20044;-59
2022/02/13 01:46:01;;;;;;;11.68;5.18;;;;;;;-2.91;79.14;97912.63;5088617;28;20036;-58
2022/02/13 01:48:29;;;;;;;8.50;5.30;;;;;;;-3.05;80.48;97910.53;5071074;28;20064;-59
2022/02/13 01:50:56;;;;;;;12.98;5.35;;;;;;;-3.21;80.61;97914.69;5072665;28;20040;-59
2022/02/13 01:53:43;;;;;;;8.88;4.93;;;;;;;-3.38;80.85;97916.34;5072772;28;20115;-56
2022/02/13 01:56:12;;;;;;;10.10;5.70;;;;;;;-3.54;81.67;97914.34;5088843;28;20036;-58
2022/02/13 01:58:40;;;;;;;11.93;5.45;;;;;;;-3.43;81.78;97911.47;5069959;28;20048;-59
2022/02/13 02:01:09;;;;;;;8.45;5.32;;;;;;;-3.57;80.84;97912.00;5086499;28;20054;-59
2022/02/13 02:03:37;;;;;;;9.35;5.30;;;;;;;-3.63;81.40;97913.41;5069244;28;20040;-57
2022/02/13 02:06:04;;;;;;;9.52;5.43;;;;;;;-3.77;82.98;97913.91;5072854;28;20110;-58
2022/02/13 02:08:30;;;;;;;12.95;6.22;;;;;;;-3.87;82.20;97916.59;5086128;28;20039;-59
2022/02/13 02:10:57;;;;;;;14.27;6.30;;;;;;;-3.89;83.41;97914.09;5088227;28;20066;-58
2022/02/13 02:13:24;;;;;;;9.80;5.50;;;;;;;-3.99;83.09;97913.31;5084173;28;20052;-59
2022/02/13 02:15:50;;;;;;;8.45;5.38;;;;;;;-4.06;83.67;97913.88;5087472;28;20047;-59
2022/02/13 02:18:17;;;;;;;13.07;5.93;;;;;;;-4.29;84.33;97918.69;5087378;28;20118;-57
2022/02/13 02:20:43;;;;;;;15.15;5.50;;;;;;;-4.41;84.56;97918.03;5087926;28;20039;-57
2022/02/13 02:23:11;;;;;;;9.52;5.75;;;;;;;-4.64;84.82;97917.50;5072273;28;20064;-60
2022/02/13 02:25:39;;;;;;;10.77;5.55;;;;;;;-4.66;86.64;97909.72;5085128;28;20040;-57
2022/02/13 02:28:05;;;;;;;13.25;6.78;;;;;;;-4.63;86.72;97908.59;5087222;28;20051;-59
2022/02/13 02:30:32;;;;;;;13.13;6.57;;;;;;;-4.36;86.18;97904.38;5069346;28;20719;-59
2022/02/13 02:32:59;;;;;;;9.43;5.72;;;;;;;-4.55;85.61;97899.97;5080904;28;20562;-59
2022/02/13 02:35:25;;;;;;;9.98;5.70;;;;;;;-4.50;86.42;97890.63;5069370;28;20037;-58
2022/02/13 02:37:52;;;;;;;9.65;5.35;;;;;;;-4.60;85.66;97889.84;5071485;28;20043;-59
2022/02/13 02:40:18;;;;;;;10.90;6.22;;;;;;;-4.79;86.07;97888.06;5088265;28;20656;-57
2022/02/13 02:42:47;;;;;;;11.00;5.35;;;;;;;-4.81;87.17;97885.56;5083144;28;20055;-58
2022/02/13 02:45:14;;;;;;;14.65;6.85;;;;;;;-4.77;87.60;97889.56;5083953;28;20048;-59
2022/02/13 02:47:42;;;;;;;12.90;5.85;;;;;;;-4.89;86.75;97885.41;5085036;28;20389;-59
2022/02/13 02:50:10;;;;;;;10.68;5.95;;;;;;;-4.88;87.43;97881.78;5067311;28;20040;-58
2022/02/13 02:52:37;;;;;;;13.57;6.03;;;;;;;-4.80;87.65;97881.09;5066005;28;20052;-59
2022/02/13 02:55:05;;;;;;;10.52;5.40;;;;;;;-4.84;87.29;97873.47;5093493;28;20040;-59
2022/02/13 02:57:31;;;;;;;13.48;5.47;;;;;;;-4.64;88.52;97867.31;5091794;28;20045;-59
2022/02/13 02:59:58;;;;;;;14.18;6.57;;;;;;;-4.10;88.56;97866.69;5083169;28;20039;-59
2022/02/13 03:02:25;;;;;;;10.38;5.45;;;;;;;-3.58;87.26;97852.91;5096578;28;20109;-58
2022/02/13 03:04:52;;;;;;;9.60;5.25;;;;;;;-3.28;85.85;97855.38;5077141;28;20040;-57
2022/02/13 03:07:19;;;;;;;10.95;5.03;;;;;;;-3.06;84.22;97854.06;5085320;28;20059;-59
2022/02/13 03:09:45;;;;;;;7.90;4.93;;;;;;;-2.80;84.01;97847.16;5086811;28;20055;-59
2022/02/13 03:12:12;;;;;;;9.85;5.10;;;;;;;-2.72;83.62;97844.56;5087194;28;20047;-59
2022/02/13 03:14:39;;;;;;;11.27;4.85;;;;;;;-2.61;83.17;97844.28;5086477;28;20036;-56
2022/02/13 03:17:07;;;;;;;10.23;5.00;;;;;;;-2.45;82.74;97837.41;5073139;28;20083;-58
2022/02/13 03:19:35;;;;;;;10.68;4.45;;;;;;;-2.40;82.41;97837.78;5070506;28;20110;-59
2022/02/13 03:22:02;;;;;;;9.35;4.68;;;;;;;-2.22;82.14;97840.38;5067568;28;20052;-59
2022/02/13 03:24:29;;;;;;;10.35;4.05;;;;;;;-2.12;81.34;97845.56;5080410;28;20063;-60
2022/02/13 03:26:56;;;;;;;6.22;3.90;;;;;;;-2.04;80.90;97842.09;5078952;28;20048;-60
2022/02/13 03:29:22;;;;;;;10.07;4.18;;;;;;;-2.15;80.58;97839.72;5066957;28;20446;-60
2022/02/13 03:31:49;;;;;;;9.30;4.35;;;;;;;-2.21;81.40;97841.22;5067615;28;20044;-59
2022/02/13 03:34:15;;;;;;;8.48;4.28;;;;;;;-2.29;81.39;97844.63;5078112;28;20055;-60
2022/02/13 03:36:42;;;;;;;7.80;4.43;;;;;;;-2.38;82.45;97838.47;5079547;28;20094;-60
2022/02/13 03:39:09;;;;;;;8.18;4.03;;;;;;;-2.42;81.55;97839.78;5066101;28;20035;-60
2022/02/13 03:41:35;;;;;;;8.95;4.53;;;;;;;-2.61;81.30;97843.47;5067864;28;20519;-60
2022/02/13 03:44:02;;;;;;;10.90;4.47;;;;;;;-2.55;82.62;97839.38;5077058;28;20453;-59
2022/02/13 03:46:29;;;;;;;7.63;4.50;;;;;;;-2.55;82.94;97836.72;5077542;28;20573;-60
2022/02/13 03:48:55;;;;;;;9.02;3.92;;;;;;;-2.77;82.06;97834.41;5065981;28;20040;-60
2022/02/13 03:51:22;;;;;;;8.65;4.10;;;;;;;-2.88;82.90;97835.50;5066057;28;20505;-60
2022/02/13 03:53:48;;;;;;;7.68;3.67;;;;;;;-2.96;83.65;97835.44;5074355;28;20048;-60
2022/02/13 03:56:15;;;;;;;9.40;4.20;;;;;;;-2.97;83.90;97836.41;5071507;28;20044;-60
2022/02/13 03:58:42;;;;;;;8.68;4.07;;;;;;;-3.03;85.28;97829.91;5065201;28;20428;-60
2022/02/13 04:01:10;;;;;;;9.48;4.35;;;;;;;-3.08;84.18;97839.28;5083555;28;20033;-60
2022/02/13 04:03:37;;;;;;;6.97;3.53;;;;;;;-3.00;84.73;97842.00;5072852;28;20055;-60
2022/02/13 04:06:04;;;;;;;10.85;3.90;;;;;;;-2.92;84.05;97841.25;5085927;28;20073;-59
2022/02/13 04:08:30;;;;;;;13.63;4.28;;;;;;;-2.59;84.07;97845.97;5085730;28;20036;-60
2022/02/13 04:10:58;;;;;;;12.50;3.97;;;;;;;-2.35;83.00;97838.13;5082812;28;20040;-60
2022/02/13 04:13:25;;;;;;;11.77;4.10;;;;;;;-2.10;82.01;97842.75;5070820;28;20081;-60
2022/02/13 04:15:52;;;;;;;9.15;4.03;;;;;;;-2.02;81.41;97847.25;5066091;28;20094;-60
2022/02/13 04:18:19;;;;;;;8.75;3.65;;;;;;;-1.91;81.15;97844.31;5065912;28;20044;-59
2022/02/13 04:20:46;;;;;;;6.95;4.00;;;;;;;-1.88;81.18;97845.81;5066052;28;20044;-60
2022/02/13 04:23:12;;;;;;;7.30;4.05;;;;;;;-1.68;79.92;97849.03;5068064;28;20094;-59
2022/02/13 04:25:39;;;;;;;8.63;3.65;;;;;;;-1.66;80.55;97854.19;5085854;28;20054;-59
2022/02/13 04:28:06;;;;;;;8.20;4.22;;;;;;;-1.72;80.17;97851.19;5066981;28;20044;-58
2022/02/13 04:30:32;;;;;;;7.80;3.42;;;;;;;-1.77;80.12;97857.97;5066955;28;20508;-59
2022/02/13 04:32:59;;;;;;;9.32;3.85;;;;;;;-1.77;80.95;97855.31;5085936;28;20040;-55
2022/02/13 04:35:27;;;;;;;10.70;3.83;;;;;;;-1.67;80.50;97850.69;5066121;28;20748;-59
2022/02/13 04:37:56;;;;;;;10.98;4.43;;;;;;;-1.55;80.34;97848.56;5070853;28;20439;-59
2022/02/13 04:40:23;;;;;;;7.72;3.65;;;;;;;-1.40;79.79;97840.78;5086402;28;20051;-59
2022/02/13 04:42:50;;;;;;;8.82;4.35;;;;;;;-1.33;79.53;97843.63;5075326;28;20040;-60
2022/02/13 04:45:17;;;;;;;6.40;3.45;;;;;;;-1.35;79.42;97840.28;5068268;28;20052;-60
2022/02/13 04:47:43;;;;;;;8.45;3.65;;;;;;;-1.26;79.35;97841.16;5069659;28;20484;-60
2022/02/13 04:50:10;;;;;;;6.65;3.85;;;;;;;-1.23;78.79;97840.81;5065040;28;20040;-59
2022/02/13 04:52:36;;;;;;;9.45;3.90;;;;;;;-1.40;79.39;97846.09;5066253;28;20050;-60
2022/02/13 04:55:04;;;;;;;10.75;3.63;;;;;;;-1.89;79.53;97834.34;5065535;28;20044;-60
2022/02/13 04:57:30;;;;;;;10.68;4.03;;;;;;;-2.31;81.97;97838.66;5073507;28;20049;-60
2022/02/13 04:59:57;;;;;;;9.40;4.03;;;;;;;-2.46;83.02;97830.47;5081107;28;20391;-60
2022/02/13 05:02:23;;;;;;;9.88;4.50;;;;;;;-2.54;83.57;97822.47;5086527;28;20044;-59
2022/02/13 05:04:50;;;;;;;9.43;3.88;;;;;;;-2.47;84.53;97830.63;5085804;28;20048;-59
2022/02/13 05:07:16;;;;;;;8.73;4.03;;;;;;;-2.55;82.92;97831.41;5074247;28;20106;-59
2022/02/13 05:09:43;;;;;;;7.60;4.10;;;;;;;-2.73;83.59;97829.63;5086179;28;20109;-58
2022/02/13 05:12:09;;;;;;;8.68;4.15;;;;;;;-2.72;83.81;97826.00;5075416;28;20538;-58
2022/02/13 05:14:36;;;;;;;8.98;4.75;;;;;;;-2.81;84.66;97819.78;5070016;28;20048;-59
2022/02/13 05:17:03;;;;;;;8.82;4.10;;;;;;;-2.87;84.78;97823.06;5072031;28;20040;-57
2022/02/13 05:19:29;;;;;;;8.55;4.28;;;;;;;-2.93;85.26;97823.69;5086645;28;20043;-59
2022/02/13 05:21:57;;;;;;;10.02;4.75;;;;;;;-2.77;85.63;97818.50;5088185;28;20044;-59
2022/02/13 05:24:24;;;;;;;9.25;4.28;;;;;;;-2.52;85.08;97813.34;5089896;28;20055;-60
2022/02/13 05:26:51;;;;;;;6.82;3.97;;;;;;;-2.33;84.17;97810.63;5078377;28;20044;-59
2022/02/13 05:29:17;;;;;;;10.48;4.90;;;;;;;-2.27;83.67;97807.34;5068635;28;20523;-58
2022/02/13 05:31:45;;;;;;;10.48;5.15;;;;;;;-2.12;83.10;97808.41;5074696;28;20047;-58
2022/02/13 05:34:15;;;;;;;10.48;4.55;;;;;;;-2.04;82.81;97806.75;5089302;28;20841;-59
2022/02/13 05:36:45;;;;;;;9.77;4.85;;;;;;;-1.97;83.10;97813.09;5077165;28;20076;-59
2022/02/13 05:39:11;;;;;;;8.85;4.65;;;;;;;-1.92;82.25;97807.31;5069128;28;20047;-58
2022/02/13 05:41:40;;;;;;;8.23;3.90;;;;;;;-1.79;82.24;97806.84;5076682;28;20028;-59
2022/02/13 05:44:07;;;;;;;10.07;4.32;;;;;;;-1.83;81.80;97803.69;5068545;28;20597;-59
2022/02/13 05:46:34;;;;;;;14.77;4.32;;;;;;;-1.78;81.71;97801.38;5068504;28;20442;-58
2022/02/13 05:49:01;;;;;;;8.77;3.90;;;;;;;-1.70;81.65;97796.09;5068984;28;20124;-57
2022/02/13 05:51:27;;;;;;;13.57;4.75;;;;;;;-1.73;81.09;97793.75;5069764;28;20048;-58
2022/02/13 05:53:55;;;;;;;8.65;4.93;;;;;;;-1.74;81.30;97791.25;5068397;28;20778;-57
2022/02/13 05:56:22;;;;;;;9.30;4.90;;;;;;;-1.79;81.24;97791.75;5083081;28;20047;-59
2022/02/13 05:58:50;;;;;;;8.88;4.43;;;;;;;-1.78;81.26;97779.28;5084424;28;20064;-55
2022/02/13 06:01:18;;;;;;;9.23;4.60;;;;;;;-1.74;81.38;97776.16;5091656;28;20044;-58
2022/02/13 06:03:45;;;;;;;10.20;4.45;;;;;;;-1.73;81.25;97772.50;5085298;28;20438;-59
2022/02/13 06:06:12;;;;;;;8.05;4.43;;;;;;;-1.82;81.95;97778.78;5067648;28;20045;-60
2022/02/13 06:08:39;;;;;;;9.07;4.78;;;;;;;-1.78;81.80;97774.81;5074622;28;20481;-59
2022/02/13 06:11:07;;;;;;;8.23;4.45;;;;;;;-1.73;81.80;97775.16;5076135;28;20052;-59
2022/02/13 06:13:34;;;;;;;10.23;4.40;;;;;;;-1.72;81.46;97766.22;5083842;28;20048;-59
2022/02/13 06:16:01;;;;;;;9.48;4.45;;;;;;;-1.70;81.67;97761.56;5074492;28;20048;-59
2022/02/13 06:18:28;;;;;;;10.13;4.70;;;;;;;-1.63;81.43;97771.53;5071935;28;20123;-59
2022/02/13 06:20:55;;;;;;;9.90;5.18;;;;;;;-1.57;81.20;97770.88;5075664;28;20500;-59
2022/02/13 06:23:21;;;;;;;9.77;5.10;;;;;;;-1.57;81.29;97770.88;5068641;28;20044;-60
2022/02/13 06:25:48;;;;;;;10.93;5.82;;;;;;;-1.53;81.26;97774.03;5078081;28;20101;-60
2022/02/13 06:28:14;;;;;;;7.78;4.18;;;;;;;-1.54;81.13;97764.41;5067920;28;20045;-61
2022/02/13 06:30:42;;;;;;;10.45;5.07;;;;;;;-1.53;81.30;97756.28;5069002;28;20117;-61
2022/02/13 06:33:09;;;;;;;12.48;5.47;;;;;;;-1.51;81.53;97770.22;5083566;28;20055;-61
2022/02/13 06:35:36;;;;;;;9.02;4.72;;;;;;;-1.54;81.34;97759.94;5069466;28;20040;-61
2022/02/13 06:38:03;;;;;;;8.30;4.43;;;;;;;-1.50;81.34;97757.78;5090505;28;20051;-61
2022/02/13 06:40:30;;;;;;;11.30;5.90;;;;;;;-1.52;81.26;97746.50;5078850;28;20454;-61
2022/02/13 06:42:57;;;;;;;8.75;5.40;;;;;;;-1.51;81.46;97753.47;5084350;28;20044;-61
2022/02/13 06:45:24;;;;;;;11.45;5.18;;;;;;;-1.50;81.76;97750.66;5081198;28;20058;-61
2022/02/13 06:47:52;;;;;;;11.40;5.05;;;;;;;-1.45;81.11;97753.63;5085734;28;20055;-61
2022/02/13 06:50:18;;;;;;;14.85;7.00;;;;;;;-1.37;81.86;97757.28;5088833;28;20048;-61
2022/02/13 06:52:45;;;;;;;11.60;6.00;;;;;;;-1.32;81.00;97755.78;5085382;28;20044;-61
2022/02/13 06:55:12;;;;;;;11.00;5.95;;;;;;;-1.26;81.09;97766.75;5086488;28;20090;-60
2022/02/13 06:57:52;;;;;;;10.90;6.03;;;;;;;-1.18;80.69;97759.59;5087362;28;20040;-61
2022/02/13 07:00:19;;;;;;;9.15;4.82;;;;;;;-1.12;80.35;97758.09;5083200;28;20059;-60
2022/02/13 07:02:46;;;;;;;11.15;5.13;;;;;;;-1.10;80.33;97763.25;5087667;28;20495;-61
2022/02/13 07:05:13;;;;;;;13.70;6.68;;;;;;;-1.09;80.21;97755.13;5080188;28;20040;-60
2022/02/13 07:07:40;;;;;;;9.45;5.72;;;;;;;-1.03;80.68;97752.78;5066960;28;20045;-61
2022/02/13 07:10:09;;;;;;;14.05;6.47;;;;;;;-0.96;80.14;97749.28;5086695;28;20438;-61
2022/02/13 07:12:37;;;;;;;12.43;6.55;;;;;;;-0.83;80.27;97750.59;5087630;28;20048;-61
2022/02/13 07:15:06;;;;;;;11.35;5.80;;;;;;;-0.87;79.96;97755.41;5072065;28;20041;-61
2022/02/13 07:17:34;;;;;;;9.30;6.03;;;;;;;-0.90;79.98;97750.44;5066535;28;20049;-61
2022/02/13 07:20:01;;;;;;;7.85;4.93;;;;;;;-0.86;80.07;97751.75;5066967;28;20029;-61
2022/02/13 07:22:27;;;;;;;16.13;6.88;;;;;;;-0.74;79.67;97744.25;5077583;28;20043;-60
2022/02/13 07:24:54;;;;;;;12.32;5.45;;;;;;;-0.60;79.36;97748.03;5087932;28;20579;-61
2022/02/13 07:27:20;;;;;;;10.18;5.80;;;;;;;-0.60;79.17;97750.69;5076160;28;20425;-61
2022/02/13 07:29:47;;;;;;;11.23;4.93;;;;;;;-0.50;79.14;97750.50;5072853;28;20048;-61
2022/02/13 07:32:14;;;;;;;8.77;5.47;;;;;;;-0.49;79.49;97743.31;5082188;28;20051;-62
2022/02/13 07:34:40;;;;;;;9.82;5.53;;;;;;;-0.41;79.07;97752.13;5079988;28;20040;-61
2022/02/13 07:37:11;;;;;;;10.40;5.90;;;;;;;-0.32;78.72;97757.41;5066959;28;20522;-61
2022/02/13 07:39:38;;;;;;;11.85;6.13;;;;;;;-0.21;78.85;97764.19;5077110;28;20036;-56
2022/02/13 07:42:05;;;;;;;11.00;5.22;;;;;;;-0.08;77.95;97747.69;5073486;28;20048;-55
2022/02/13 07:44:32;;;;;;;8.80;4.90;;;;;;;0.21;77.55;97748.81;5080432;28;20036;-55
2022/02/13 07:46:59;;;;;;;9.35;5.65;;;;;;;0.33;76.78;97744.75;5079589;28;20052;-52
2022/02/13 07:49:25;;;;;;;10.50;5.30;;;;;;;0.59;76.01;97743.56;5072131;28;20055;-51
2022/02/13 07:51:52;;;;;;;17.02;6.45;;;;;;;0.78;75.62;97744.91;5083920;28;20051;-50
2022/02/13 07:54:19;;;;;;;14.77;5.72;;;;;;;0.75;75.33;97736.47;5072285;28;20404;-51
2022/02/13 07:56:45;;;;;;;10.48;5.70;;;;;;;0.79;75.05;97737.75;5083633;28;20040;-56
2022/02/13 07:59:12;;;;;;;11.60;5.60;;;;;;;0.89;75.04;97733.00;5080843;28;20046;-54
2022/02/13 08:01:38;;;;;;;9.00;5.53;;;;;;;0.96;74.72;97730.44;5093656;28;20050;-54
2022/02/13 08:04:05;;;;;;;11.00;5.97;;;;;;;0.96;74.78;97732.28;5082918;28;20048;-61
2022/02/13 08:06:32;;;;;;;13.18;6.32;;;;;;;1.01;75.00;97727.22;5080884;28;20044;-62
2022/02/13 08:08:58;;;;;;;9.32;5.15;;;;;;;1.09;75.04;97723.63;5083209;28;20040;-61
2022/02/13 08:11:25;;;;;;;14.75;6.20;;;;;;;1.18;74.99;97722.53;5067895;28;20044;-61
2022/02/13 08:13:51;;;;;;;10.15;6.40;;;;;;;1.24;75.23;97724.50;5077143;28;20044;-61
2022/02/13 08:16:21;;;;;;;11.82;6.25;;;;;;;1.34;74.17;97726.91;5083526;28;20604;-61
2022/02/13 08:18:47;;;;;;;12.68;6.63;;;;;;;1.47;74.50;97722.75;5078626;28;20477;-62
2022/02/13 08:21:14;;;;;;;11.27;6.05;;;;;;;1.51;74.39;97722.19;5076153;28;20049;-64
2022/02/13 08:23:41;;;;;;;11.50;6.75;;;;;;;1.64;73.65;97720.69;5091143;28;20054;-60
2022/02/13 08:26:08;;;;;;;9.07;5.70;;;;;;;1.68;73.60;97720.16;5079615;28;20044;-61
2022/02/13 08:28:36;;;;;;;13.00;6.28;;;;;;;1.83;73.33;97719.28;5083053;28;20049;-61
2022/02/13 08:31:03;;;;;;;10.05;6.18;;;;;;;1.94;73.58;97723.31;5081624;28;20110;-61
2022/02/13 08:33:29;;;;;;;13.85;6.38;;;;;;;2.04;72.60;97717.69;5086941;28;20416;-61
2022/02/13 08:35:56;;;;;;;9.65;5.70;;;;;;;2.16;72.56;97715.34;5075582;28;20051;-59
2022/02/13 08:38:23;;;;;;;13.88;6.63;;;;;;;2.21;72.00;97719.09;5077708;28;20041;-61
2022/02/13 08:40:51;;;;;;;14.65;7.30;;;;;;;2.29;72.15;97715.47;5081580;28;20039;-61
2022/02/13 08:43:18;;;;;;;11.57;5.90;;;;;;;2.33;71.70;97721.28;5083527;28;20105;-60
2022/02/13 08:45:50;;;;;;;10.98;6.13;;;;;;;2.40;71.59;97716.81;5081125;28;20066;-61
2022/02/13 08:48:21;;;;;;;13.75;6.00;;;;;;;2.48;71.85;97715.88;5078982;28;20044;-61
2022/02/13 08:50:48;;;;;;;12.38;6.72;;;;;;;2.51;71.25;97706.66;5088030;28;20044;-61
2022/02/13 08:53:15;;;;;;;11.98;5.88;;;;;;;2.55;71.49;97707.94;5078911;28;20052;-61
2022/02/13 08:55:42;;;;;;;14.45;6.78;;;;;;;2.70;71.01;97707.84;5096154;28;20058;-61
2022/02/13 08:58:08;;;;;;;11.40;7.40;;;;;;;2.78;70.46;97706.88;5095305;28;20052;-61
2022/02/13 09:00:35;;;;;;;12.75;5.75;;;;;;;2.93;70.49;97706.78;5091572;28;20048;-61
2022/02/13 09:03:02;;;;;;;12.82;6.30;;;;;;;3.06;69.73;97703.38;5085388;28;20044;-60
2022/02/13 09:05:28;;;;;;;13.00;7.03;;;;;;;3.11;69.67;97706.31;5082709;28;20438;-62
2022/02/13 09:07:55;;;;;;;9.32;5.60;;;;;;;3.15;69.52;97696.84;5071505;28;20128;-60
2022/02/13 09:10:22;;;;;;;13.27;6.72;;;;;;;3.28;69.30;97698.78;5087338;28;20036;-61
2022/02/13 09:12:48;;;;;;;12.23;6.90;;;;;;;3.43;69.42;97693.31;5074623;28;20052;-61
2022/02/13 09:15:17;;;;;;;11.90;6.65;;;;;;;3.51;68.61;97689.66;5086711;28;20113;-61
2022/02/13 09:17:43;;;;;;;14.18;6.18;;;;;;;3.63;68.37;97695.25;5084633;28;20403;-60
2022/02/13 09:20:10;;;;;;;14.27;7.80;;;;;;;3.73;67.91;97693.03;5086709;28;20032;-61
2022/02/13 09:22:37;;;;;;;12.02;6.63;;;;;;;3.92;67.82;97690.66;5087150;28;20044;-61
2022/02/13 09:25:04;;;;;;;9.48;5.75;;;;;;;4.07;67.16;97681.59;5087969;28;20051;-61
2022/02/13 09:27:31;;;;;;;13.25;6.32;;;;;;;4.14;67.96;97682.47;5085567;28;20102;-61
2022/02/13 09:29:57;;;;;;;11.68;6.90;;;;;;;4.15;67.02;97682.25;5085439;28;20032;-61
2022/02/13 09:32:24;;;;;;;9.80;6.20;;;;;;;4.18;67.02;97667.63;5089454;28;20075;-61
2022/02/13 09:34:51;;;;;;;13.80;6.45;;;;;;;4.26;66.57;97666.59;5087419;28;20079;-61
2022/02/13 09:37:18;;;;;;;9.82;5.63;;;;;;;4.28;66.30;97659.19;5082932;28;20079;-61
2022/02/13 09:39:47;;;;;;;11.85;6.25;;;;;;;4.41;66.45;97653.00;5076257;28;20042;-61
2022/02/13 09:42:13;;;;;;;12.65;5.82;;;;;;;4.49;66.02;97655.47;5078815;28;20051;-61
2022/02/13 09:44:40;;;;;;;13.90;6.20;;;;;;;4.50;65.84;97656.31;5097081;28;20051;-61
2022/02/13 09:47:07;;;;;;;9.50;5.90;;;;;;;4.59;65.92;97663.13;5084587;28;20095;-62
2022/02/13 09:49:34;;;;;;;12.52;6.32;;;;;;;4.77;65.22;97648.25;5074260;28;20090;-61
2022/02/13 09:52:01;;;;;;;12.95;5.45;;;;;;;4.84;64.53;97642.88;5079963;28;20048;-61
2022/02/13 09:54:28;;;;;;;12.88;6.13;;;;;;;5.05;64.09;97633.78;5085597;28;20044;-62
2022/02/13 09:57:59;;;;;;;12.23;6.10;;;;;;;5.11;63.89;97637.47;5083266;28;20040;-62
2022/02/13 09:59:52;;;;;;;9.30;5.82;;;;;;;5.27;63.13;97636.22;5085194;28;20044;-61
2022/02/13 10:02:51;;;;;;;9.95;5.40;;;;;;;5.37;63.46;97630.38;5085279;28;20044;-62
2022/02/13 10:05:21;;;;;;;10.85;4.63;;;;;;;5.47;62.88;97630.78;5046275;28;20134;-62
2022/02/13 10:07:52;;;;;;;9.18;5.05;;;;;;;5.58;62.43;97627.44;5089327;28;20040;-61
2022/02/13 10:10:18;;;;;;;7.55;5.20;;;;;;;5.64;62.44;97625.72;5083710;28;20101;-61
2022/02/13 10:12:47;;;;;;;10.27;5.65;;;;;;;5.80;62.00;97628.97;5084662;28;20036;-61
2022/02/13 10:15:27;;;;;;;14.38;6.10;;;;;;;5.85;60.73;97613.03;5085053;28;20268;-62
2022/02/13 10:18:08;;;;;;;10.77;5.60;;;;;;;5.90;61.03;97618.56;5083195;28;20494;-61
2022/02/13 10:20:40;;;;;;;11.27;5.85;;;;;;;6.02;61.27;97615.19;5093425;28;20040;-61
2022/02/13 10:23:17;;;;;;;15.45;6.25;;;;;;;6.01;60.22;97617.06;5076938;28;20055;-61
2022/02/13 10:25:45;;;;;;;9.80;5.40;;;;;;;6.06;60.35;97614.59;5084801;28;20048;-60
2022/02/13 10:28:17;;;;;;;9.35;6.22;;;;;;;6.06;60.23;97611.06;5083385;28;20044;-61
2022/02/13 10:30:47;;;;;;;9.70;5.97;;;;;;;6.24;59.82;97603.06;5084701;28;20028;-58
2022/02/13 10:33:18;;;;;;;11.75;5.90;;;;;;;6.37;59.45;97612.09;5085522;28;20052;-60
2022/02/13 10:36:04;;;;;;;11.63;6.60;;;;;;;6.38;59.31;97598.44;5084071;28;20410;-62
2022/02/13 10:38:31;;;;;;;11.80;6.20;;;;;;;6.45;59.37;97608.31;5083022;28;20289;-62
2022/02/13 10:41:18;;;;;;;10.18;5.85;;;;;;;6.47;59.01;97599.00;5079498;28;20487;-61
2022/02/13 10:44:03;;;;;;;9.80;5.55;;;;;;;6.66;59.54;97599.03;5077739;28;20055;-60
2022/02/13 10:46:32;;;;;;;11.60;5.68;;;;;;;6.79;60.31;97594.56;5081797;28;20455;-61
2022/02/13 10:48:59;;;;;;;12.48;6.07;;;;;;;6.74;58.26;97596.06;5081835;28;20058;-63
2022/02/13 10:51:26;;;;;;;11.82;6.32;;;;;;;6.79;58.54;97590.03;5084371;28;20028;-62
2022/02/13 10:53:54;;;;;;;10.52;5.70;;;;;;;6.85;57.81;97577.50;5084147;28;20036;-61
2022/02/13 10:56:21;;;;;;;10.90;5.68;;;;;;;6.82;57.73;97573.41;5083707;28;20118;-60
2022/02/13 10:58:50;;;;;;;8.93;5.00;;;;;;;6.92;57.46;97564.81;5089427;28;20043;-61
2022/02/13 11:01:20;;;;;;;8.18;4.93;;;;;;;7.02;57.40;97556.22;5098160;28;20040;-62
2022/02/13 11:03:48;;;;;;;10.73;5.72;;;;;;;7.08;56.77;97557.22;5080825;28;20041;-62
2022/02/13 11:06:16;;;;;;;11.27;5.70;;;;;;;7.18;56.74;97551.31;5081326;28;20052;-61
2022/02/13 11:08:50;;;;;;;9.70;5.43;;;;;;;7.24;56.94;97535.06;5069935;28;20063;-62
2022/02/13 11:11:41;;;;;;;10.18;5.43;;;;;;;7.14;55.54;97530.19;5073845;28;20048;-61
2022/02/13 11:14:07;;;;;;;9.43;5.25;;;;;;;7.24;56.22;97535.06;5098229;28;20052;-61
2022/02/13 11:16:39;;;;;;;9.40;5.22;;;;;;;7.24;55.40;97526.97;5077186;28;20044;-62
2022/02/13 11:19:13;;;;;;;13.50;6.07;;;;;;;7.20;55.41;97524.94;5082876;28;20044;-61
2022/02/13 11:21:42;;;;;;;10.38;5.70;;;;;;;7.27;54.93;97521.13;5082430;28;20410;-62
2022/02/13 11:24:26;;;;;;;10.55;5.18;;;;;;;7.35;55.49;97513.78;5084005;28;20047;-62
2022/02/13 11:26:53;;;;;;;9.25;4.57;;;;;;;7.44;55.08;97503.53;5080260;28;20052;-63
2022/02/13 11:29:20;;;;;;;8.95;5.43;;;;;;;7.44;54.69;97511.59;5080895;28;20467;-65
2022/02/13 11:31:51;;;;;;;9.75;4.85;;;;;;;7.42;55.07;97504.53;5085484;28;20051;-64
2022/02/13 11:34:26;;;;;;;8.25;4.90;;;;;;;7.40;55.17;97501.28;5072917;28;20059;-64